Time;durP1;ratioP1;P1;durP2;ratioP2;P2;SDS_P1;SDS_P2;PMS_P1;PMS_P2;Temp;Humidity;BMP_temperature;BMP_pressure;BME280_temperature;BME280_humidity;BME280_pressure;Samples;Min_cycle;Max_cycle;Signal;HPM_P1;HPM_P2
2023/06/24 00:02:02;;;;;;;6.90;6.32;;;16.20;99.90;;;;;;5043894;28;20056;-88
2023/06/24 00:04:27;;;;;;;8.32;6.65;;;16.10;99.90;;;;;;5067713;28;20049;-88
2023/06/24 00:06:56;;;;;;;7.30;6.60;;;16.10;99.90;;;;;;5054123;28;20182;-88
2023/06/24 00:09:22;;;;;;;7.15;6.45;;;16.30;99.90;;;;;;5052905;28;20040;-87
2023/06/24 00:11:47;;;;;;;6.75;6.03;;;16.00;99.90;;;;;;5071614;28;20067;-89
2023/06/24 00:14:15;;;;;;;6.93;6.05;;;16.00;99.90;;;;;;5054002;28;20415;-87
2023/06/24 00:16:41;;;;;;;7.15;6.45;;;16.00;99.90;;;;;;5071564;28;20052;-88
2023/06/24 00:19:08;;;;;;;7.10;6.43;;;16.40;99.90;;;;;;5058976;28;20512;-88
2023/06/24 00:21:37;;;;;;;10.40;7.25;;;16.00;99.90;;;;;;5074155;28;20474;-88
2023/06/24 00:24:04;;;;;;;7.20;6.18;;;16.00;99.90;;;;;;5064316;28;20102;-89
2023/06/24 00:26:31;;;;;;;8.93;6.68;;;16.00;99.90;;;;;;5073946;28;20053;-89
2023/06/24 00:28:58;;;;;;;7.20;6.50;;;16.50;99.90;;;;;;5074103;28;20082;-89
2023/06/24 00:31:23;;;;;;;7.40;6.68;;;15.90;99.90;;;;;;5073444;28;20074;-89
2023/06/24 00:33:49;;;;;;;8.63;6.63;;;15.90;99.90;;;;;;5072450;28;20048;-88
2023/06/24 00:36:18;;;;;;;12.00;7.57;;;15.80;99.90;;;;;;5073506;28;20048;-87
2023/06/24 00:38:44;;;;;;;8.60;7.80;;;15.80;99.90;;;;;;5073700;28;20072;-88
2023/06/24 00:41:10;;;;;;;9.30;7.60;;;15.90;99.90;;;;;;5055317;28;20080;-87
2023/06/24 00:43:35;;;;;;;7.90;7.10;;;15.70;99.90;;;;;;5072717;28;20045;-87
2023/06/24 00:46:02;;;;;;;7.72;7.00;;;15.70;99.90;;;;;;5072477;28;20119;-88
2023/06/24 00:48:31;;;;;;;8.02;7.25;;;16.00;99.90;;;;;;5072105;28;20504;-88
2023/06/24 00:50:58;;;;;;;8.60;6.75;;;15.70;99.90;;;;;;5071201;28;20055;-90
2023/06/24 00:53:26;;;;;;;7.43;6.60;;;15.50;99.90;;;;;;5071533;28;20780;-89
2023/06/24 00:55:55;;;;;;;7.30;6.60;;;15.80;99.90;;;;;;5071463;28;20460;-87
2023/06/24 00:58:21;;;;;;;7.40;6.63;;;15.60;99.90;;;;;;5055362;28;20051;-87
2023/06/24 01:00:57;;;;;;;8.55;7.70;;;15.60;99.90;;;;;;5054808;28;20098;-88
2023/06/24 01:03:25;;;;;;;8.10;7.07;;;15.50;99.90;;;;;;5072979;28;20076;-88
2023/06/24 01:05:52;;;;;;;8.77;7.72;;;15.60;99.90;;;;;;5072188;28;20052;-88
2023/06/24 01:08:19;;;;;;;8.15;7.35;;;15.50;99.90;;;;;;5054712;28;20048;-88
2023/06/24 01:10:45;;;;;;;7.97;7.03;;;15.60;99.90;;;;;;5054210;28;20055;-89
2023/06/24 01:13:10;;;;;;;8.02;7.22;;;15.40;99.90;;;;;;5071273;28;20056;-88
2023/06/24 01:15:37;;;;;;;8.38;7.50;;;15.40;99.90;;;;;;5070519;28;20049;-88
2023/06/24 01:18:11;;;;;;;8.73;7.60;;;15.00;99.90;;;;;;5054906;28;20052;-88
2023/06/24 01:21:00;;;;;;;9.10;7.68;;;15.30;99.90;;;;;;5051254;28;20049;-88
2023/06/24 01:23:34;;;;;;;9.45;7.22;;;15.40;99.90;;;;;;5040710;28;20092;-88
2023/06/24 01:26:42;;;;;;;9.75;8.75;;;15.10;99.90;;;;;;5070444;28;20105;-88
2023/06/24 01:29:27;;;;;;;8.82;7.90;;;15.10;99.90;;;;;;5051663;28;20118;-88
2023/06/24 01:32:15;;;;;;;8.35;7.55;;;15.00;99.90;;;;;;5051766;28;20462;-87
2023/06/24 01:34:48;;;;;;;8.43;7.65;;;15.00;99.90;;;;;;5053548;28;20049;-89
2023/06/24 01:37:26;;;;;;;8.60;7.75;;;15.00;99.90;;;;;;5071639;28;20045;-90
2023/06/24 01:39:57;;;;;;;8.25;7.32;;;15.00;99.90;;;;;;5071636;28;20052;-89
2023/06/24 01:42:23;;;;;;;8.65;7.75;;;14.90;99.90;;;;;;5070956;28;20044;-89
2023/06/24 01:44:50;;;;;;;8.45;7.60;;;14.90;99.90;;;;;;5050848;28;20407;-89
2023/06/24 01:47:22;;;;;;;9.23;8.07;;;15.20;99.90;;;;;;5050564;28;20822;-89
2023/06/24 01:49:51;;;;;;;;;;;14.90;99.90;;;;;;5049235;28;20053;-87
2023/06/24 01:52:20;;;;;;;7.40;6.70;;;14.90;99.90;;;;;;5062407;28;19931;-88
2023/06/24 01:54:49;;;;;;;9.60;7.03;;;14.90;99.90;;;;;;5071806;28;20512;-88
2023/06/24 01:57:16;;;;;;;8.57;6.85;;;15.00;99.90;;;;;;5051753;28;20115;-88
2023/06/24 01:59:45;;;;;;;8.57;7.72;;;14.80;99.90;;;;;;5052044;28;20051;-89
2023/06/24 02:02:12;;;;;;;8.50;7.55;;;14.80;99.90;;;;;;5070269;28;20500;-89
2023/06/24 02:04:39;;;;;;;9.38;8.23;;;14.80;99.90;;;;;;5051741;28;20506;-88
2023/06/24 02:07:07;;;;;;;9.57;8.00;;;14.80;99.90;;;;;;5067900;28;20044;-88
2023/06/24 02:09:33;;;;;;;8.35;7.50;;;14.80;99.90;;;;;;5069691;28;20049;-89
2023/06/24 02:12:02;;;;;;;8.23;7.43;;;14.70;99.90;;;;;;5051611;28;20389;-88
2023/06/24 02:14:30;;;;;;;8.20;7.40;;;14.70;99.90;;;;;;5069455;28;20086;-89
2023/06/24 02:16:57;;;;;;;8.50;7.70;;;14.70;99.90;;;;;;5068194;28;20070;-87
2023/06/24 02:19:27;;;;;;;9.50;7.90;;;14.70;99.90;;;;;;5068360;28;20796;-87
2023/06/24 02:21:54;;;;;;;8.52;7.75;;;14.10;99.90;;;;;;5069186;28;20448;-88
2023/06/24 02:24:20;;;;;;;9.02;7.75;;;15.20;99.90;;;;;;5067628;28;20086;-89
2023/06/24 02:26:47;;;;;;;9.45;8.45;;;14.60;99.90;;;;;;5066867;28;20041;-88
2023/06/24 02:29:13;;;;;;;10.60;9.18;;;14.60;99.90;;;;;;5068633;28;20048;-88
2023/06/24 02:31:40;;;;;;;10.13;8.15;;;14.80;99.90;;;;;;5067174;28;20044;-88
2023/06/24 02:34:06;;;;;;;10.93;8.88;;;14.60;99.90;;;;;;5067757;28;20829;-88
2023/06/24 02:36:31;;;;;;;12.45;8.50;;;14.90;99.90;;;;;;5067834;28;20052;-88
2023/06/24 02:38:57;;;;;;;10.27;9.05;;;14.50;99.90;;;;;;5067300;28;20569;-87
2023/06/24 02:41:23;;;;;;;11.23;9.25;;;14.50;99.90;;;;;;5067153;28;20467;-88
2023/06/24 02:43:48;;;;;;;10.27;9.20;;;14.50;99.90;;;;;;5068911;28;20102;-87
2023/06/24 02:46:15;;;;;;;10.45;9.35;;;14.50;99.90;;;;;;5047084;28;20155;-88
2023/06/24 02:48:42;;;;;;;10.35;8.68;;;14.40;99.90;;;;;;5057822;28;20049;-89
2023/06/24 02:51:10;;;;;;;11.43;9.48;;;14.40;99.90;;;;;;5059565;28;20060;-88
2023/06/24 02:53:38;;;;;;;10.25;9.25;;;14.40;99.90;;;;;;5051847;28;20496;-88
2023/06/24 02:56:06;;;;;;;12.18;9.35;;;14.40;99.90;;;;;;5067256;28;20040;-89
2023/06/24 02:58:32;;;;;;;11.65;9.52;;;14.40;99.90;;;;;;5066865;28;20471;-89
2023/06/24 03:01:02;;;;;;;10.65;9.57;;;14.40;99.90;;;;;;5066291;28;20110;-89
2023/06/24 03:03:28;;;;;;;11.45;9.30;;;14.40;99.90;;;;;;5048007;28;20100;-89
2023/06/24 03:05:56;;;;;;;11.15;9.85;;;14.40;99.90;;;;;;5046853;28;20923;-88
2023/06/24 03:08:24;;;;;;;11.32;9.55;;;14.40;99.90;;;;;;5047608;28;20122;-88
2023/06/24 03:10:56;;;;;;;10.20;8.68;;;14.40;99.90;;;;;;5047570;28;20052;-88
2023/06/24 03:13:22;;;;;;;;;;;14.50;99.90;;;;;;5050036;28;20047;-89
2023/06/24 03:15:47;;;;;;;9.98;8.88;;;14.60;99.90;;;;;;5065566;28;20295;-88
2023/06/24 03:18:13;;;;;;;12.93;10.13;;;14.40;99.90;;;;;;5067054;28;20044;-88
2023/06/24 03:20:39;;;;;;;10.23;9.10;;;15.00;99.90;;;;;;5066713;28;20426;-88
2023/06/24 03:23:08;;;;;;;13.25;9.48;;;14.50;99.90;;;;;;5050385;28;20106;-88
2023/06/24 03:25:34;;;;;;;11.05;9.85;;;14.50;99.90;;;;;;5046449;28;20082;-88
2023/06/24 03:28:07;;;;;;;11.98;10.27;;;14.60;99.90;;;;;;5060640;28;20151;-89
2023/06/24 03:30:33;;;;;;;13.63;10.40;;;14.50;99.90;;;;;;5049636;28;20044;-89
2023/06/24 03:32:59;;;;;;;14.77;11.40;;;14.60;99.90;;;;;;5066649;28;20458;-88
2023/06/24 03:35:24;;;;;;;11.45;10.25;;;14.60;99.90;;;;;;5064016;28;20463;-88
2023/06/24 03:37:50;;;;;;;12.50;10.02;;;14.60;99.90;;;;;;5046594;28;20403;-87
2023/06/24 03:40:18;;;;;;;12.05;9.93;;;14.60;99.90;;;;;;5055391;28;20047;-87
2023/06/24 03:42:43;;;;;;;12.35;10.88;;;14.50;99.90;;;;;;5047622;28;20049;-87
2023/06/24 03:45:09;;;;;;;13.38;11.18;;;14.60;99.90;;;;;;5055815;28;20448;-87
2023/06/24 03:47:35;;;;;;;15.30;10.80;;;14.60;99.90;;;;;;5054873;28;20049;-87
2023/06/24 03:50:00;;;;;;;11.23;9.90;;;14.60;99.90;;;;;;5036560;28;20090;-88
2023/06/24 03:52:26;;;;;;;13.63;11.35;;;14.70;99.90;;;;;;5050505;28;20053;-88
2023/06/24 03:54:53;;;;;;;12.95;10.95;;;14.70;99.90;;;;;;5067362;28;20517;-88
2023/06/24 03:57:18;;;;;;;13.05;10.13;;;15.30;99.90;;;;;;5065612;28;20040;-88
2023/06/24 03:59:44;;;;;;;13.95;10.13;;;14.80;99.90;;;;;;5067186;28;20090;-88
2023/06/24 04:02:10;;;;;;;10.90;9.80;;;14.80;99.90;;;;;;5050232;28;20036;-89
2023/06/24 04:04:36;;;;;;;12.10;10.52;;;14.90;99.90;;;;;;5046111;28;20041;-89
2023/06/24 04:07:02;;;;;;;11.88;10.63;;;15.40;99.90;;;;;;5047799;28;20071;-89
2023/06/24 04:09:29;;;;;;;14.52;10.32;;;15.00;99.90;;;;;;5030579;28;20397;-89
2023/06/24 04:11:55;;;;;;;11.48;10.27;;;15.00;99.90;;;;;;5047767;28;20129;-88
2023/06/24 04:14:21;;;;;;;13.32;11.10;;;15.20;99.90;;;;;;5048066;28;20128;-90
2023/06/24 04:16:46;;;;;;;13.45;10.30;;;15.10;99.90;;;;;;5063919;28;20044;-89
2023/06/24 04:19:12;;;;;;;12.23;9.90;;;15.50;99.90;;;;;;5050869;28;20800;-90
2023/06/24 04:21:38;;;;;;;12.52;10.57;;;15.20;99.90;;;;;;5068254;28;20480;-90
2023/06/24 04:24:04;;;;;;;17.17;10.13;;;15.80;99.90;;;;;;5067310;28;20060;-90
2023/06/24 04:26:30;;;;;;;14.45;11.20;;;15.30;99.90;;;;;;5067867;28;20124;-90
2023/06/24 04:28:56;;;;;;;11.73;9.70;;;15.40;99.90;;;;;;5051167;28;20056;-89
2023/06/24 04:31:21;;;;;;;12.23;10.93;;;15.40;99.90;;;;;;5050363;28;20033;-90
2023/06/24 04:33:47;;;;;;;13.32;10.80;;;15.60;99.90;;;;;;5049762;28;20396;-88
2023/06/24 04:36:12;;;;;;;12.60;11.25;;;15.50;99.90;;;;;;5042202;28;20044;-89
2023/06/24 04:38:38;;;;;;;13.63;10.77;;;16.10;99.90;;;;;;5054421;28;20849;-89
2023/06/24 04:41:04;;;;;;;13.13;10.82;;;15.60;99.90;;;;;;5049832;28;20048;-89
2023/06/24 04:43:29;;;;;;;13.80;10.25;;;16.40;99.90;;;;;;5066384;28;20407;-90
2023/06/24 04:45:55;;;;;;;13.02;11.15;;;15.80;99.90;;;;;;5066820;28;20048;-90
2023/06/24 04:48:23;;;;;;;12.73;10.20;;;16.20;99.90;;;;;;5068037;28;20048;-89
2023/06/24 04:50:49;;;;;;;12.32;10.48;;;15.90;99.90;;;;;;5070700;28;20059;-91
2023/06/24 04:53:16;;;;;;;13.35;10.93;;;15.90;99.90;;;;;;5054159;28;20048;-88
2023/06/24 04:55:42;;;;;;;12.32;11.02;;;16.20;99.90;;;;;;5070869;28;20048;-89
2023/06/24 04:58:08;;;;;;;13.18;10.65;;;16.10;99.90;;;;;;5070861;28;20055;-90
2023/06/24 05:00:34;;;;;;;12.93;11.05;;;16.20;99.90;;;;;;5053781;28;20044;-91
2023/06/24 05:02:59;;;;;;;13.85;11.00;;;16.20;99.90;;;;;;5071251;28;20579;-89
2023/06/24 05:05:25;;;;;;;14.27;11.55;;;16.30;99.90;;;;;;5071143;28;20056;-90
2023/06/24 05:07:51;;;;;;;12.70;11.32;;;16.40;99.90;;;;;;5069861;28;20076;-88
2023/06/24 05:10:16;;;;;;;14.80;11.20;;;16.50;99.90;;;;;;5071124;28;20041;-89
2023/06/24 05:12:43;;;;;;;14.23;10.85;;;16.60;99.90;;;;;;5070851;28;20041;-90
2023/06/24 05:15:09;;;;;;;11.95;10.75;;;16.70;99.90;;;;;;5042935;28;20380;-90
2023/06/24 05:17:35;;;;;;;13.60;10.07;;;16.70;99.90;;;;;;5054983;28;20158;-87
2023/06/24 05:20:03;;;;;;;13.55;11.20;;;16.80;99.90;;;;;;5072484;28;20145;-89
2023/06/24 05:22:29;;;;;;;13.93;11.30;;;17.00;99.90;;;;;;5054935;28;20076;-91
2023/06/24 05:24:54;;;;;;;11.80;10.50;;;17.40;99.90;;;;;;5049880;28;20072;-90
2023/06/24 05:27:20;;;;;;;12.23;10.93;;;17.40;99.90;;;;;;5066100;28;20049;-90
2023/06/24 05:29:51;;;;;;;14.88;11.18;;;17.60;99.90;;;;;;5036155;28;20049;-90
2023/06/24 05:32:17;;;;;;;12.73;11.32;;;18.10;99.90;;;;;;5047344;28;20222;-91
2023/06/24 05:34:44;;;;;;;14.05;11.32;;;19.20;99.90;;;;;;5056187;28;20066;-91
2023/06/24 05:37:10;;;;;;;12.00;10.68;;;20.10;99.90;;;;;;5072471;28;20040;-90
2023/06/24 05:39:37;;;;;;;11.70;10.50;;;21.00;99.90;;;;;;5056784;28;20185;-89
2023/06/24 05:42:04;;;;;;;12.82;11.43;;;21.90;99.90;;;;;;5073128;28;20430;-91
2023/06/24 05:44:29;;;;;;;12.52;10.95;;;22.60;99.90;;;;;;5055196;28;20040;-92
2023/06/24 05:46:56;;;;;;;11.57;10.40;;;23.20;99.90;;;;;;5055759;28;20109;-91
2023/06/24 05:49:22;;;;;;;11.07;10.07;;;23.70;99.90;;;;;;5055973;28;20064;-92
2023/06/24 05:51:57;;;;;;;11.70;10.48;;;24.40;99.90;;;;;;5055775;28;20519;-91
2023/06/24 05:54:23;;;;;;;11.80;10.35;;;24.60;99.90;;;;;;5049901;28;20048;-89
2023/06/24 05:56:49;;;;;;;10.98;9.98;;;24.70;99.90;;;;;;5061303;28;20110;-90
2023/06/24 05:59:14;;;;;;;11.32;10.00;;;25.00;99.90;;;;;;5052479;28;20048;-87
2023/06/24 06:01:40;;;;;;;13.32;10.48;;;25.20;99.90;;;;;;5068981;28;20076;-88
2023/06/24 06:04:06;;;;;;;11.57;10.02;;;25.30;99.90;;;;;;5055639;28;20051;-88
2023/06/24 06:06:31;;;;;;;10.38;9.38;;;25.70;99.90;;;;;;5068673;28;20054;-89
2023/06/24 06:08:57;;;;;;;9.98;8.95;;;25.90;99.90;;;;;;5070380;28;20476;-87
2023/06/24 06:11:23;;;;;;;10.57;9.50;;;26.10;99.70;;;;;;5067458;28;20500;-87
2023/06/24 06:13:48;;;;;;;12.45;9.73;;;26.50;99.30;;;;;;5064590;28;20044;-87
2023/06/24 06:16:14;;;;;;;9.75;8.43;;;26.40;98.20;;;;;;5050001;28;20049;-91
2023/06/24 06:18:40;;;;;;;10.25;9.15;;;26.50;96.80;;;;;;5065963;28;20059;-88
2023/06/24 06:21:05;;;;;;;10.38;9.38;;;26.70;96.50;;;;;;5032270;28;20132;-91
2023/06/24 06:23:31;;;;;;;9.85;8.75;;;26.80;95.60;;;;;;5058206;28;20527;-88
2023/06/24 06:25:57;;;;;;;9.80;8.90;;;26.90;94.90;;;;;;5063987;28;20066;-88
2023/06/24 06:28:22;;;;;;;9.20;8.30;;;26.70;93.60;;;;;;5067906;28;20052;-88
2023/06/24 06:30:48;;;;;;;9.40;8.52;;;26.70;93.30;;;;;;5065957;28;20499;-89
2023/06/24 06:33:13;;;;;;;9.95;8.68;;;26.80;93.00;;;;;;5063407;28;20086;-87
2023/06/24 06:35:39;;;;;;;9.82;8.82;;;27.00;93.10;;;;;;5066262;28;20048;-88
2023/06/24 06:38:05;;;;;;;9.75;8.75;;;27.10;92.50;;;;;;5067240;28;20087;-89
2023/06/24 06:40:30;;;;;;;9.52;8.73;;;27.00;92.30;;;;;;5067172;28;20672;-88
2023/06/24 06:42:56;;;;;;;9.65;8.70;;;27.20;92.60;;;;;;5066906;28;20048;-87
2023/06/24 06:45:22;;;;;;;9.45;8.50;;;26.60;93.00;;;;;;5066697;28;20052;-87
2023/06/24 06:47:49;;;;;;;9.80;8.90;;;25.50;94.20;;;;;;5065008;28;20468;-87
2023/06/24 06:50:15;;;;;;;9.85;8.88;;;24.80;96.60;;;;;;5066739;28;20049;-90
2023/06/24 06:52:41;;;;;;;10.00;8.75;;;24.40;98.30;;;;;;5051070;28;20155;-88
2023/06/24 06:55:06;;;;;;;9.30;8.15;;;24.10;99.90;;;;;;5066421;28;20115;-88
2023/06/24 06:57:32;;;;;;;9.43;8.50;;;24.00;99.90;;;;;;5050270;28;20094;-89
2023/06/24 06:59:58;;;;;;;9.70;8.73;;;24.10;99.90;;;;;;5066745;28;20056;-89
2023/06/24 07:02:23;;;;;;;8.93;8.05;;;23.80;99.90;;;;;;5065487;28;20094;-88
2023/06/24 07:04:50;;;;;;;8.90;7.95;;;23.60;99.90;;;;;;5065591;28;20043;-88
2023/06/24 07:07:16;;;;;;;9.88;8.43;;;23.60;99.90;;;;;;5066138;28;20052;-86
2023/06/24 07:09:42;;;;;;;10.43;9.38;;;23.60;99.90;;;;;;5066096;28;20052;-86
2023/06/24 07:12:08;;;;;;;8.73;7.82;;;23.60;99.90;;;;;;5067622;28;20110;-85
2023/06/24 07:14:35;;;;;;;10.93;8.77;;;23.60;99.90;;;;;;5052107;28;20416;-86
2023/06/24 07:17:03;;;;;;;10.15;8.90;;;24.00;99.90;;;;;;5047587;28;20045;-86
2023/06/24 07:19:29;;;;;;;9.20;8.20;;;23.60;99.90;;;;;;5057445;28;20120;-87
2023/06/24 07:21:55;;;;;;;9.35;8.45;;;23.90;99.90;;;;;;5067989;28;20123;-84
2023/06/24 07:24:20;;;;;;;9.80;8.82;;;23.80;99.90;;;;;;5047819;28;20037;-84
2023/06/24 07:26:46;;;;;;;9.43;8.52;;;23.90;99.90;;;;;;5066702;28;20052;-84
2023/06/24 07:29:11;;;;;;;10.25;8.93;;;24.00;99.90;;;;;;5065702;28;20587;-84
2023/06/24 07:31:37;;;;;;;10.40;9.38;;;24.10;99.90;;;;;;5064788;28;20491;-82
2023/06/24 07:34:03;;;;;;;10.48;8.82;;;24.30;99.90;;;;;;5067468;28;20052;-82
2023/06/24 07:36:29;;;;;;;10.80;9.57;;;24.40;99.90;;;;;;5065207;28;20041;-82
2023/06/24 07:38:55;;;;;;;10.73;9.43;;;24.60;99.60;;;;;;5067904;28;20040;-82
2023/06/24 07:41:20;;;;;;;10.10;9.10;;;24.70;98.40;;;;;;5066576;28;20036;-81
2023/06/24 07:43:46;;;;;;;10.48;9.40;;;24.80;98.10;;;;;;5067482;28;20040;-82
2023/06/24 07:46:11;;;;;;;8.95;8.07;;;25.30;97.60;;;;;;5066720;28;20044;-84
2023/06/24 07:48:37;;;;;;;10.02;8.43;;;25.20;97.50;;;;;;5066771;28;20140;-86
2023/06/24 07:51:03;;;;;;;10.25;8.48;;;24.60;98.00;;;;;;5064538;28;20048;-87
2023/06/24 07:53:28;;;;;;;10.25;9.23;;;24.90;97.60;;;;;;5048549;28;20411;-86
2023/06/24 07:55:56;;;;;;;8.75;7.82;;;25.00;98.30;;;;;;5064415;28;20044;-86
2023/06/24 07:58:22;;;;;;;9.32;8.43;;;25.00;97.70;;;;;;5065272;28;20048;-86
2023/06/24 08:00:47;;;;;;;9.55;8.65;;;25.20;97.20;;;;;;5058387;28;20518;-85
2023/06/24 08:03:14;;;;;;;8.85;7.88;;;25.20;96.00;;;;;;5064266;28;20406;-85
2023/06/24 08:05:39;;;;;;;8.52;7.60;;;25.30;96.20;;;;;;5064500;28;20424;-85
2023/06/24 08:08:06;;;;;;;10.68;8.68;;;25.40;95.20;;;;;;5049026;28;20048;-86
2023/06/24 08:10:32;;;;;;;7.88;7.03;;;25.60;95.10;;;;;;5047399;28;20548;-85
2023/06/24 08:12:57;;;;;;;7.95;7.22;;;26.00;94.60;;;;;;5063364;28;20051;-83
2023/06/24 08:15:23;;;;;;;8.63;7.70;;;25.70;94.00;;;;;;5081846;28;20491;-84
2023/06/24 08:17:54;;;;;;;8.35;7.20;;;25.80;93.50;;;;;;5067702;28;20040;-86
2023/06/24 08:20:24;;;;;;;9.75;8.35;;;25.60;92.80;;;;;;5065043;28;20157;-86
2023/06/24 08:22:49;;;;;;;10.43;7.88;;;25.50;93.30;;;;;;5067241;28;20060;-85
2023/06/24 08:25:15;;;;;;;7.60;6.80;;;25.80;92.80;;;;;;5070141;28;20117;-85
2023/06/24 08:27:41;;;;;;;9.27;7.63;;;25.50;92.60;;;;;;5052867;28;20052;-85
2023/06/24 08:30:07;;;;;;;8.25;7.25;;;25.50;92.90;;;;;;5052411;28;20135;-88
2023/06/24 08:32:33;;;;;;;8.60;7.55;;;25.60;92.60;;;;;;5062128;28;20089;-84
2023/06/24 08:34:59;;;;;;;10.45;7.55;;;25.70;92.30;;;;;;5069084;28;20052;-85
2023/06/24 08:37:24;;;;;;;7.50;6.65;;;25.80;92.60;;;;;;5068687;28;20056;-86
2023/06/24 08:39:50;;;;;;;7.53;6.72;;;25.90;91.70;;;;;;5069137;28;20048;-85
2023/06/24 08:42:15;;;;;;;8.85;7.95;;;26.10;91.80;;;;;;5068532;28;20045;-84
2023/06/24 08:44:41;;;;;;;7.13;5.32;;;26.20;91.80;;;;;;5069396;28;20147;-84
2023/06/24 08:47:07;;;;;;;5.85;5.07;;;26.20;89.60;;;;;;5069337;28;20040;-85
2023/06/24 08:49:38;;;;;;;8.38;5.13;;;26.20;84.70;;;;;;5068110;28;20084;-85
2023/06/24 08:52:08;;;;;;;6.70;5.70;;;26.40;83.50;;;;;;5068278;28;20416;-87
2023/06/24 08:54:36;;;;;;;6.00;5.40;;;26.50;82.40;;;;;;5070446;28;20049;-86
2023/06/24 08:57:05;;;;;;;5.15;4.63;;;26.60;81.20;;;;;;5067136;28;20111;-87
2023/06/24 08:59:31;;;;;;;5.20;4.70;;;26.70;80.40;;;;;;5068046;28;20085;-84
2023/06/24 09:01:57;;;;;;;6.63;4.30;;;26.80;79.50;;;;;;5048939;28;20033;-87
2023/06/24 09:04:22;;;;;;;4.70;4.15;;;26.90;76.70;;;;;;5067433;28;20048;-85
2023/06/24 09:06:48;;;;;;;4.55;4.00;;;26.90;75.60;;;;;;5069170;28;20455;-86
2023/06/24 09:09:23;;;;;;;5.43;4.93;;;27.00;76.00;;;;;;5065247;28;20463;-87
2023/06/24 09:11:56;;;;;;;5.32;4.82;;;27.10;74.40;;;;;;5070006;28;20040;-85
2023/06/24 09:14:24;;;;;;;5.50;5.00;;;27.20;75.80;;;;;;5067797;28;20105;-84
2023/06/24 09:17:06;;;;;;;5.63;5.07;;;27.30;75.00;;;;;;5068795;28;20045;-85
2023/06/24 09:19:36;;;;;;;;;;;27.20;75.00;;;;;;5067087;28;20051;-84
2023/06/24 09:22:06;;;;;;;4.35;3.25;;;27.20;67.00;;;;;;5067670;28;19932;-85
2023/06/24 09:24:36;;;;;;;4.10;3.70;;;27.30;69.10;;;;;;5068600;28;20052;-84
2023/06/24 09:27:03;;;;;;;6.20;4.30;;;27.40;72.20;;;;;;5067850;28;20115;-83
2023/06/24 09:29:34;;;;;;;3.72;3.30;;;27.30;72.70;;;;;;5068956;28;20655;-82
2023/06/24 09:32:00;;;;;;;3.50;3.20;;;27.30;69.80;;;;;;5056750;28;20056;-83
2023/06/24 09:34:26;;;;;;;7.05;3.45;;;27.30;68.90;;;;;;5067576;28;20513;-85
2023/06/24 09:36:56;;;;;;;5.97;3.88;;;27.20;68.60;;;;;;5061132;28;21747;-83
2023/06/24 09:39:28;;;;;;;3.85;3.35;;;27.20;67.60;;;;;;5068061;28;20072;-82
2023/06/24 09:41:54;;;;;;;3.72;3.10;;;27.30;66.80;;;;;;5066504;28;20136;-82
2023/06/24 09:44:19;;;;;;;4.18;3.78;;;27.20;68.10;;;;;;5067604;28;20509;-83
2023/06/24 09:46:46;;;;;;;5.85;3.85;;;27.20;66.50;;;;;;5084843;28;20048;-85
2023/06/24 09:49:12;;;;;;;4.53;4.00;;;27.30;67.20;;;;;;5067659;28;20102;-85
2023/06/24 09:51:39;;;;;;;5.05;3.72;;;27.30;67.80;;;;;;5084983;28;20052;-85
2023/06/24 09:54:09;;;;;;;4.82;3.65;;;27.20;66.90;;;;;;5068070;28;20041;-85
2023/06/24 09:56:46;;;;;;;3.95;3.65;;;27.20;67.50;;;;;;5068598;28;20706;-86
2023/06/24 09:59:13;;;;;;;5.10;3.58;;;26.80;66.60;;;;;;5067250;28;20063;-85
2023/06/24 10:01:44;;;;;;;4.65;3.90;;;27.20;67.80;;;;;;5066674;28;20062;-83
2023/06/24 10:04:17;;;;;;;5.50;3.67;;;27.10;66.60;;;;;;5066723;28;20113;-83
2023/06/24 10:06:43;;;;;;;4.20;3.80;;;27.10;66.20;;;;;;5063561;28;20302;-82
2023/06/24 10:09:12;;;;;;;3.75;3.30;;;27.30;67.00;;;;;;5062377;28;20120;-83
2023/06/24 10:11:37;;;;;;;3.85;3.25;;;27.20;66.00;;;;;;5052397;28;20538;-87
2023/06/24 10:14:03;;;;;;;4.28;3.33;;;27.00;64.70;;;;;;5059373;28;20127;-87
2023/06/24 10:16:29;;;;;;;4.22;3.20;;;27.30;65.80;;;;;;5051070;28;20040;-85
2023/06/24 10:19:04;;;;;;;3.30;3.00;;;27.30;65.90;;;;;;5066932;28;20090;-86
2023/06/24 10:21:47;;;;;;;3.05;2.75;;;27.40;64.20;;;;;;5057613;28;20037;-84
2023/06/24 10:24:13;;;;;;;4.53;2.90;;;27.80;65.20;;;;;;5065711;28;20589;-84
2023/06/24 10:26:40;;;;;;;3.70;2.92;;;27.70;64.40;;;;;;5066589;28;20036;-85
2023/06/24 10:29:05;;;;;;;3.45;2.95;;;27.60;63.00;;;;;;5067009;28;20496;-83
2023/06/24 10:31:40;;;;;;;3.55;3.17;;;27.70;63.30;;;;;;5064611;28;20040;-83
2023/06/24 10:34:32;;;;;;;4.07;3.70;;;27.80;64.80;;;;;;5054224;28;20087;-83
2023/06/24 10:37:08;;;;;;;3.40;3.10;;;27.80;62.10;;;;;;5065977;28;20096;-85
2023/06/24 10:39:46;;;;;;;3.75;3.35;;;27.80;63.80;;;;;;5048813;28;20531;-85
2023/06/24 10:42:30;;;;;;;3.85;3.03;;;27.80;60.20;;;;;;5066514;28;20098;-84
2023/06/24 10:45:00;;;;;;;4.00;2.95;;;27.80;61.80;;;;;;5067797;28;20055;-83
2023/06/24 10:47:27;;;;;;;3.88;2.92;;;28.00;63.60;;;;;;5068123;28;20091;-84
2023/06/24 10:49:53;;;;;;;3.47;3.03;;;28.00;62.70;;;;;;5065223;28;20056;-84
2023/06/24 10:52:21;;;;;;;3.92;3.13;;;28.50;62.60;;;;;;5067136;28;20534;-85
2023/06/24 10:54:48;;;;;;;4.28;3.45;;;28.40;62.50;;;;;;5066424;28;20101;-85
2023/06/24 10:57:13;;;;;;;3.75;3.17;;;28.40;61.60;;;;;;5066984;28;20139;-85
2023/06/24 10:59:41;;;;;;;4.18;3.28;;;28.60;61.30;;;;;;5066604;28;20171;-85
2023/06/24 11:02:12;;;;;;;4.13;3.35;;;28.80;62.60;;;;;;5066878;28;20044;-85
2023/06/24 11:04:55;;;;;;;3.95;3.38;;;28.70;60.90;;;;;;5067674;28;20067;-87
2023/06/24 11:07:22;;;;;;;3.70;3.30;;;28.80;61.90;;;;;;5054671;28;20055;-85
2023/06/24 11:09:55;;;;;;;3.22;2.92;;;28.80;60.70;;;;;;5066476;28;20049;-86
2023/06/24 11:12:26;;;;;;;3.80;3.22;;;29.00;60.80;;;;;;5050456;28;20453;-86
2023/06/24 11:14:54;;;;;;;6.35;3.90;;;28.90;59.10;;;;;;5066790;28;20048;-86
2023/06/24 11:17:20;;;;;;;3.72;3.40;;;28.60;59.50;;;;;;5066357;28;20131;-87
2023/06/24 11:19:46;;;;;;;4.07;3.53;;;28.50;59.70;;;;;;5069104;28;20076;-88
2023/06/24 11:22:12;;;;;;;3.40;3.10;;;28.30;59.40;;;;;;5067173;28;20116;-87
2023/06/24 11:24:39;;;;;;;3.42;3.13;;;28.30;59.70;;;;;;5066422;28;20044;-87
2023/06/24 11:27:05;;;;;;;4.05;3.65;;;28.40;60.40;;;;;;5067879;28;20067;-87
2023/06/24 11:29:32;;;;;;;4.78;3.38;;;28.10;60.50;;;;;;5067126;28;20056;-85
2023/06/24 11:31:58;;;;;;;4.43;3.17;;;28.20;61.30;;;;;;5068152;28;20047;-86
2023/06/24 11:34:24;;;;;;;4.22;3.22;;;28.40;62.50;;;;;;5066009;28;20052;-86
2023/06/24 11:36:50;;;;;;;4.25;3.30;;;28.40;63.10;;;;;;5066065;28;20041;-85
2023/06/24 11:39:22;;;;;;;3.97;3.42;;;28.60;62.10;;;;;;5066077;28;20044;-86
2023/06/24 11:41:48;;;;;;;4.03;3.33;;;28.60;60.10;;;;;;5048569;28;20090;-86
2023/06/24 11:44:14;;;;;;;3.78;3.03;;;28.70;60.70;;;;;;5065133;28;20040;-85
2023/06/24 11:46:40;;;;;;;4.07;3.20;;;29.00;61.70;;;;;;5067540;28;20036;-85
2023/06/24 11:49:07;;;;;;;6.07;3.58;;;29.00;60.80;;;;;;5048672;28;20148;-85
2023/06/24 11:51:33;;;;;;;3.60;3.13;;;29.00;60.70;;;;;;5081557;28;20084;-85
2023/06/24 11:54:01;;;;;;;3.60;3.30;;;29.10;61.80;;;;;;5065696;28;20534;-85
2023/06/24 11:56:37;;;;;;;4.13;3.30;;;29.00;60.60;;;;;;5067162;28;20087;-84
2023/06/24 11:59:07;;;;;;;3.60;3.30;;;29.00;59.30;;;;;;5070636;28;20123;-85
2023/06/24 12:01:33;;;;;;;3.13;2.80;;;29.00;59.00;;;;;;5070112;28;20515;-86
2023/06/24 12:04:13;;;;;;;3.33;3.03;;;28.80;58.40;;;;;;5052707;28;20051;-85
2023/06/24 12:06:39;;;;;;;3.20;2.88;;;29.00;56.80;;;;;;5068937;28;20408;-84
2023/06/24 12:09:07;;;;;;;3.33;3.03;;;28.90;58.20;;;;;;5070206;28;20052;-84
2023/06/24 12:11:32;;;;;;;6.90;3.30;;;29.00;60.20;;;;;;5053256;28;20131;-85
2023/06/24 12:13:58;;;;;;;3.92;3.58;;;29.00;59.60;;;;;;5069925;28;20151;-86
2023/06/24 12:16:24;;;;;;;4.45;3.20;;;29.10;60.30;;;;;;5086747;28;20135;-86
2023/06/24 12:18:50;;;;;;;2.83;2.63;;;29.30;59.70;;;;;;5071264;28;20138;-83
2023/06/24 12:21:15;;;;;;;4.47;3.33;;;29.50;60.40;;;;;;5068552;28;20098;-83
2023/06/24 12:23:41;;;;;;;3.05;2.85;;;29.60;59.20;;;;;;5069397;28;20060;-83
2023/06/24 12:26:07;;;;;;;3.42;3.13;;;29.60;59.50;;;;;;5052940;28;20063;-86
2023/06/24 12:28:32;;;;;;;3.65;3.35;;;29.90;60.10;;;;;;5051596;28;20051;-85
2023/06/24 12:30:58;;;;;;;3.22;2.92;;;29.90;57.90;;;;;;5051446;28;20511;-84
2023/06/24 12:33:24;;;;;;;2.97;2.78;;;29.80;56.50;;;;;;5068509;28;20404;-84
2023/06/24 12:35:49;;;;;;;3.30;3.00;;;29.50;56.40;;;;;;5069056;28;20441;-86
2023/06/24 12:38:15;;;;;;;3.40;3.00;;;29.30;56.90;;;;;;5069951;28;20055;-85
2023/06/24 12:40:42;;;;;;;3.45;3.15;;;29.20;57.90;;;;;;5062533;28;20141;-85
2023/06/24 12:43:08;;;;;;;3.13;2.90;;;29.00;59.70;;;;;;5068655;28;20097;-87
2023/06/24 12:45:33;;;;;;;3.63;3.20;;;28.90;59.20;;;;;;5052639;28;20048;-86